Time;durP1;ratioP1;P1;durP2;ratioP2;P2;SDS_P1;SDS_P2;PMS_P1;PMS_P2;Temp;Humidity;BMP_temperature;BMP_pressure;BME280_temperature;BME280_humidity;BME280_pressure;Samples;Min_cycle;Max_cycle;Signal;HPM_P1;HPM_P2
2023/10/19 00:02:15;;;;;;;;;;;;;;;6.12;73.08;99016.97;4949545;28;19929;-67
2023/10/19 00:04:41;;;;;;;;;;;;;;;6.15;73.40;99022.13;4933940;29;19942;-67
2023/10/19 00:07:08;;;;;;;;;;;;;;;6.16;73.51;99018.69;4949509;28;20086;-67
2023/10/19 00:09:37;;;;;;;;;;;;;;;6.18;73.68;99016.97;4931827;29;19922;-67
2023/10/19 00:12:08;;;;;;;;;;;;;;;6.21;73.57;99022.13;4948773;29;19926;-67
2023/10/19 00:14:35;;;;;;;;;;;;;;;6.21;73.40;99019.53;4933847;29;19922;-66
2023/10/19 00:17:06;;;;;;;;;;;;;;;6.22;73.46;99026.41;4932601;28;20082;-66
2023/10/19 00:19:39;;;;;;;;;;;;;;;6.24;73.48;99010.91;4931920;28;19972;-67
2023/10/19 00:22:08;;;;;;;;;;;;;;;6.24;73.40;99014.34;4938399;28;20251;-68
2023/10/19 00:24:35;;;;;;;;;;;;;;;6.22;73.05;99017.78;4952159;28;19930;-69
2023/10/19 00:27:10;;;;;;;;;;;;;;;6.20;73.24;99012.66;4955419;28;19922;-68
2023/10/19 00:29:40;;;;;;;;;;;;;;;6.23;73.40;99016.94;4971480;28;19929;-69
2023/10/19 00:32:12;;;;;;;;;;;;;;;6.28;73.75;99017.78;4954730;28;19981;-69
2023/10/19 00:34:38;;;;;;;;;;;;;;;6.29;73.59;99017.75;4972112;28;20277;-69
2023/10/19 00:37:18;;;;;;;;;;;;;;;6.26;73.35;99019.50;4925270;28;20392;-69
2023/10/19 00:39:50;;;;;;;;;;;;;;;6.17;72.87;99015.25;4947412;28;20361;-67
2023/10/19 00:42:20;;;;;;;;;;;;;;;6.15;73.43;99011.78;4955977;28;19926;-67
2023/10/19 00:44:50;;;;;;;;;;;;;;;6.21;73.43;99011.78;4972093;28;19926;-67
2023/10/19 00:47:18;;;;;;;;;;;;;;;6.24;73.30;99016.06;4956206;28;19922;-68
2023/10/19 00:49:46;;;;;;;;;;;;;;;6.20;73.04;99012.66;4955540;28;19989;-68
2023/10/19 00:52:23;;;;;;;;;;;;;;;6.23;73.33;99019.50;4971846;28;19934;-68
2023/10/19 00:57:20;;;;;;;;;;;;;;;6.24;73.12;99011.78;4970271;28;19922;-67
2023/10/19 01:02:51;;;;;;;;;;;;;;;6.18;73.24;99009.22;4970567;28;20316;-67
2023/10/19 01:05:14;;;;;;;;;;;;;;;6.20;73.75;99017.81;4967587;28;20396;-68
2023/10/19 01:07:40;;;;;;;;;;;;;;;6.17;73.35;99018.69;4953178;28;19922;-67
2023/10/19 01:10:20;;;;;;;;;;;;;;;6.18;73.86;99016.97;4969592;28;20024;-67
2023/10/19 01:12:50;;;;;;;;;;;;;;;6.15;73.44;99010.09;4970581;28;20144;-69
2023/10/19 01:17:57;;;;;;;;;;;;;;;6.16;73.57;99009.22;4969877;28;19921;-67
2023/10/19 01:28:28;;;;;;;;;;;;;;;6.16;73.18;99008.34;4956067;28;19922;-67
2023/10/19 01:30:55;;;;;;;;;;;;;;;6.14;73.45;99010.06;4976396;28;19922;-68
2023/10/19 01:33:22;;;;;;;;;;;;;;;6.17;73.68;99007.50;4975071;28;19933;-69
2023/10/19 01:38:33;;;;;;;;;;;;;;;6.22;73.98;99008.34;4972337;28;19922;-68
2023/10/19 01:40:59;;;;;;;;;;;;;;;6.23;73.05;99004.00;4958637;28;19922;-68
2023/10/19 01:43:30;;;;;;;;;;;;;;;6.27;73.50;99003.13;4975040;28;21090;-69
2023/10/19 01:45:56;;;;;;;;;;;;;;;6.35;73.88;99014.31;4975169;28;19957;-68
2023/10/19 01:48:31;;;;;;;;;;;;;;;6.32;73.81;99009.16;4957311;28;20021;-68
2023/10/19 01:51:04;;;;;;;;;;;;;;;6.29;73.08;99004.84;4956805;28;19922;-68
2023/10/19 01:53:29;;;;;;;;;;;;;;;6.17;73.47;99003.19;4974608;28;19921;-67
2023/10/19 01:55:58;;;;;;;;;;;;;;;6.20;73.41;99010.06;4941750;28;19981;-66
2023/10/19 01:58:27;;;;;;;;;;;;;;;6.17;73.11;99003.19;4963522;28;19922;-67
2023/10/19 02:01:37;;;;;;;;;;;;;;;6.20;73.77;99004.03;4972897;28;19961;-67
2023/10/19 02:03:46;;;;;;;;;;;;;;;6.24;73.67;98997.97;4953405;28;19929;-69
2023/10/19 02:09:14;;;;;;;;;;;;;;;6.25;73.57;98998.00;4940771;28;20357;-67
2023/10/19 02:11:48;;;;;;;;;;;;;;;6.25;73.43;98994.53;4943364;28;19933;-67
2023/10/19 02:14:15;;;;;;;;;;;;;;;6.28;73.23;99002.28;4974075;28;19922;-68
2023/10/19 02:16:43;;;;;;;;;;;;;;;6.31;73.44;99004.84;4958223;28;19957;-67
2023/10/19 02:19:09;;;;;;;;;;;;;;;6.31;73.28;99003.13;4973553;28;19921;-67
2023/10/19 02:21:42;;;;;;;;;;;;;;;6.29;73.45;98994.50;4975448;28;20329;-67
2023/10/19 02:24:09;;;;;;;;;;;;;;;6.31;73.66;98997.94;4973252;28;19926;-65
2023/10/19 02:26:41;;;;;;;;;;;;;;;6.30;73.47;98998.81;4955489;28;19969;-68
2023/10/19 02:29:10;;;;;;;;;;;;;;;6.24;73.34;98985.94;4957463;28;20443;-69
2023/10/19 02:31:53;;;;;;;;;;;;;;;6.25;73.90;98998.00;4974281;28;19926;-70
2023/10/19 02:34:19;;;;;;;;;;;;;;;6.31;73.49;99002.28;4958991;28;19966;-68
2023/10/19 02:36:45;;;;;;;;;;;;;;;6.32;73.42;98998.81;4973923;28;19929;-67
2023/10/19 02:39:13;;;;;;;;;;;;;;;6.34;73.35;98999.69;4974879;28;20560;-69
2023/10/19 02:41:39;;;;;;;;;;;;;;;6.39;73.59;98992.78;4973287;28;19922;-66
2023/10/19 02:46:41;;;;;;;;;;;;;;;6.38;73.33;98997.94;4971433;28;19928;-67
2023/10/19 02:49:13;;;;;;;;;;;;;;;6.36;73.15;98990.19;4939840;28;19922;-68
2023/10/19 02:51:44;;;;;;;;;;;;;;;6.38;73.58;98992.75;4973870;28;19961;-68
2023/10/19 02:54:17;;;;;;;;;;;;;;;6.39;73.37;98994.47;4954469;28;19922;-71
2023/10/19 02:56:49;;;;;;;;;;;;;;;6.44;73.89;98997.91;4956868;28;19929;-68
2023/10/19 02:59:16;;;;;;;;;;;;;;;6.45;73.62;98991.88;4957898;28;19926;-69
2023/10/19 03:01:44;;;;;;;;;;;;;;;6.44;72.88;98991.00;4963468;28;20060;-70
2023/10/19 03:04:12;;;;;;;;;;;;;;;6.43;73.15;98991.03;4947611;28;19957;-70
2023/10/19 03:06:38;;;;;;;;;;;;;;;6.50;73.70;98986.66;4956780;28;19922;-70
2023/10/19 03:11:53;;;;;;;;;;;;;;;6.54;73.72;98986.63;4973951;28;19926;-70
2023/10/19 03:14:19;;;;;;;;;;;;;;;6.58;73.46;98990.94;4974206;28;19925;-69
2023/10/19 03:16:45;;;;;;;;;;;;;;;6.52;72.83;98985.78;4962730;28;19976;-70
2023/10/19 03:19:13;;;;;;;;;;;;;;;6.48;73.37;98979.78;4956233;28;20343;-69
2023/10/19 03:21:42;;;;;;;;;;;;;;;6.45;73.57;98986.69;4954840;28;19969;-69
2023/10/19 03:24:12;;;;;;;;;;;;;;;6.44;73.16;98984.97;4940187;28;19937;-69
2023/10/19 03:26:43;;;;;;;;;;;;;;;6.42;73.27;98984.13;4953565;28;19954;-68
2023/10/19 03:29:15;;;;;;;;;;;;;;;6.39;73.34;98987.59;4969362;28;19969;-68
2023/10/19 03:31:47;;;;;;;;;;;;;;;6.42;73.83;98986.72;4956183;28;20316;-70
2023/10/19 03:34:13;;;;;;;;;;;;;;;6.45;73.34;98990.13;4960163;28;19943;-70
2023/10/19 03:36:45;;;;;;;;;;;;;;;6.55;73.69;98990.09;4939137;28;19976;-69
2023/10/19 03:39:14;;;;;;;;;;;;;;;6.52;73.15;98990.94;4972665;28;19969;-69
2023/10/19 03:41:51;;;;;;;;;;;;;;;6.49;73.22;98991.00;4955345;28;19921;-68
2023/10/19 03:46:59;;;;;;;;;;;;;;;6.56;73.91;98992.66;4972150;28;19922;-68
2023/10/19 03:49:33;;;;;;;;;;;;;;;6.54;73.30;98996.97;4973692;28;19972;-69
2023/10/19 03:54:33;;;;;;;;;;;;;;;6.53;73.50;98995.25;4972000;28;19929;-67
2023/10/19 03:57:06;;;;;;;;;;;;;;;6.56;73.56;98995.25;4955295;28;19972;-67
2023/10/19 03:59:33;;;;;;;;;;;;;;;6.52;73.46;98995.28;4973191;28;19926;-67
2023/10/19 04:02:07;;;;;;;;;;;;;;;6.54;73.72;98993.53;4955669;28;20459;-67
2023/10/19 04:04:33;;;;;;;;;;;;;;;6.54;73.93;98996.97;4956143;28;20009;-69
2023/10/19 04:07:10;;;;;;;;;;;;;;;6.60;73.83;98989.19;4948119;28;20005;-68
2023/10/19 04:12:31;;;;;;;;;;;;;;;6.70;73.66;99000.34;4971132;28;19937;-67
2023/10/19 04:15:09;;;;;;;;;;;;;;;6.71;73.69;98996.03;4963678;28;20175;-68
2023/10/19 04:17:36;;;;;;;;;;;;;;;6.72;73.31;98998.59;4953060;28;19989;-68
2023/10/19 04:20:26;;;;;;;;;;;;;;;6.73;73.39;98997.75;4956333;28;20024;-70
2023/10/19 04:22:53;;;;;;;;;;;;;;;6.73;73.45;99004.66;4955687;28;20308;-69
2023/10/19 04:25:25;;;;;;;;;;;;;;;6.78;73.74;99002.88;4972626;28;20055;-68
2023/10/19 04:27:53;;;;;;;;;;;;;;;6.77;73.47;98996.84;4939063;28;19945;-67
2023/10/19 04:30:22;;;;;;;;;;;;;;;6.80;73.48;99008.91;4973850;28;20229;-68
2023/10/19 04:32:49;;;;;;;;;;;;;;;6.84;73.50;99004.59;4971626;28;20289;-70
2023/10/19 04:35:23;;;;;;;;;;;;;;;6.82;73.72;99003.75;4955659;28;19972;-69
2023/10/19 04:37:50;;;;;;;;;;;;;;;6.75;72.67;98998.59;4956106;28;20327;-70
2023/10/19 04:40:16;;;;;;;;;;;;;;;6.76;73.71;99007.19;4972257;28;19930;-68
2023/10/19 04:42:42;;;;;;;;;;;;;;;6.87;73.69;99002.84;4973374;28;19926;-67
2023/10/19 04:45:17;;;;;;;;;;;;;;;6.96;73.36;99008.78;4972179;28;20442;-66
2023/10/19 04:47:52;;;;;;;;;;;;;;;6.88;73.08;99008.84;4932871;28;19926;-67
2023/10/19 04:50:19;;;;;;;;;;;;;;;6.84;73.33;99002.00;4953823;28;19922;-70
2023/10/19 04:52:44;;;;;;;;;;;;;;;6.88;73.76;98995.91;4970829;28;19934;-69
2023/10/19 04:55:10;;;;;;;;;;;;;;;7.00;73.64;99005.31;4956370;28;19929;-69
2023/10/19 04:57:36;;;;;;;;;;;;;;;6.97;73.44;98998.44;4974437;28;19922;-69
2023/10/19 05:00:03;;;;;;;;;;;;;;;6.93;73.54;99004.50;4948447;28;20007;-70
2023/10/19 05:02:29;;;;;;;;;;;;;;;6.87;73.15;99004.53;4974849;28;19926;-68
2023/10/19 05:05:04;;;;;;;;;;;;;;;6.84;73.31;99013.19;4973280;28;19977;-66
2023/10/19 05:07:30;;;;;;;;;;;;;;;6.83;72.92;99010.63;4956712;28;19960;-69
2023/10/19 05:09:59;;;;;;;;;;;;;;;6.77;73.08;98999.44;4974654;28;19933;-64
2023/10/19 05:12:24;;;;;;;;;;;;;;;6.78;73.58;99014.09;4974256;28;19944;-66
2023/10/19 05:14:50;;;;;;;;;;;;;;;6.84;73.54;99005.44;4956735;28;19922;-68
2023/10/19 05:17:16;;;;;;;;;;;;;;;6.72;73.67;98974.50;4972904;28;19926;-68
2023/10/19 05:19:42;;;;;;;;;;;;;;;7.01;73.74;99004.44;4957297;28;20324;-68
2023/10/19 05:22:09;;;;;;;;;;;;;;;7.09;73.36;99010.44;4974384;28;19933;-67
2023/10/19 05:24:36;;;;;;;;;;;;;;;7.16;73.66;99004.38;4956040;29;19926;-67
2023/10/19 05:27:04;;;;;;;;;;;;;;;7.24;73.78;99001.72;4955865;29;19926;-65
2023/10/19 05:29:31;;;;;;;;;;;;;;;7.21;73.61;99012.91;4956642;29;19929;-68
2023/10/19 05:31:57;;;;;;;;;;;;;;;7.28;73.64;99008.59;4956188;29;20278;-67
2023/10/19 05:34:26;;;;;;;;;;;;;;;7.36;74.08;99011.94;4956764;29;19926;-69
2023/10/19 05:36:54;;;;;;;;;;;;;;;7.43;73.26;99009.31;4957159;29;19937;-72
2023/10/19 05:39:20;;;;;;;;;;;;;;;7.41;73.50;99009.31;4956407;28;19930;-68
2023/10/19 05:41:48;;;;;;;;;;;;;;;7.41;73.62;99011.91;4958269;28;19922;-71
2023/10/19 05:44:14;;;;;;;;;;;;;;;7.45;73.51;99016.19;4972788;28;19922;-71
2023/10/19 05:46:40;;;;;;;;;;;;;;;7.48;73.37;99015.31;4957510;29;20409;-70
2023/10/19 05:49:06;;;;;;;;;;;;;;;7.52;73.54;99016.97;4974235;28;19926;-69
2023/10/19 05:51:32;;;;;;;;;;;;;;;7.55;73.16;99016.97;4957525;29;20357;-70
2023/10/19 05:54:04;;;;;;;;;;;;;;;7.56;73.31;99017.84;4971694;28;20016;-69
2023/10/19 05:56:36;;;;;;;;;;;;;;;7.59;73.43;99020.41;4971561;28;19922;-67
2023/10/19 05:59:14;;;;;;;;;;;;;;;7.69;73.07;99024.59;4969911;28;19926;-70
2023/10/19 06:01:46;;;;;;;;;;;;;;;7.68;73.20;99021.16;4970383;28;20040;-68
2023/10/19 06:04:12;;;;;;;;;;;;;;;7.73;73.05;99023.72;4952711;28;19926;-70
2023/10/19 06:06:39;;;;;;;;;;;;;;;7.77;72.99;99022.81;4954156;28;19923;-69
2023/10/19 06:09:11;;;;;;;;;;;;;;;7.86;72.64;99020.97;4952717;29;19965;-71
2023/10/19 06:11:42;;;;;;;;;;;;;;;7.82;72.29;99018.44;4968143;28;19930;-70
2023/10/19 06:14:09;;;;;;;;;;;;;;;7.83;72.55;99022.72;4969721;28;19984;-71
2023/10/19 06:16:37;;;;;;;;;;;;;;;7.93;72.74;99023.53;4953747;28;19950;-69
2023/10/19 06:19:03;;;;;;;;;;;;;;;8.02;72.43;99016.50;4968941;28;19961;-68
2023/10/19 06:21:31;;;;;;;;;;;;;;;8.04;72.44;99018.22;4955428;29;19926;-72
2023/10/19 06:24:03;;;;;;;;;;;;;;;8.07;72.21;99017.31;4946025;29;19957;-70
2023/10/19 06:26:29;;;;;;;;;;;;;;;8.03;72.44;99019.09;4958105;28;20025;-70
2023/10/19 06:29:04;;;;;;;;;;;;;;;8.03;72.26;99021.69;4962625;28;19970;-69
2023/10/19 06:31:38;;;;;;;;;;;;;;;8.03;71.97;99019.09;4958684;29;20439;-69
2023/10/19 06:34:04;;;;;;;;;;;;;;;8.14;72.39;99024.16;4960653;29;19931;-70
2023/10/19 06:36:33;;;;;;;;;;;;;;;8.28;72.00;99022.25;4958579;29;19922;-69
2023/10/19 06:39:05;;;;;;;;;;;;;;;8.37;71.72;99033.41;4959310;28;19923;-72
2023/10/19 06:41:32;;;;;;;;;;;;;;;8.32;71.58;99030.84;4960236;28;19922;-70
2023/10/19 06:43:58;;;;;;;;;;;;;;;8.30;71.65;99032.59;4976142;28;19978;-70
2023/10/19 06:46:24;;;;;;;;;;;;;;;8.30;71.87;99027.41;4960098;29;19932;-70
2023/10/19 06:48:51;;;;;;;;;;;;;;;8.40;71.96;99026.44;4959183;29;19958;-70
2023/10/19 06:51:17;;;;;;;;;;;;;;;8.59;71.80;99028.81;4960101;28;19945;-70
2023/10/19 06:53:43;;;;;;;;;;;;;;;8.64;70.90;99027.03;4959012;29;19933;-69
2023/10/19 06:56:09;;;;;;;;;;;;;;;8.47;70.14;99024.63;4975323;28;20408;-69
2023/10/19 06:58:34;;;;;;;;;;;;;;;8.47;71.00;99018.59;4972577;28;19937;-69
2023/10/19 07:01:05;;;;;;;;;;;;;;;8.48;70.75;99023.78;4956175;29;19922;-67
2023/10/19 07:03:30;;;;;;;;;;;;;;;8.63;71.18;99017.53;4956826;29;19985;-66
2023/10/19 07:05:59;;;;;;;;;;;;;;;8.81;71.09;99019.03;4956450;29;20397;-67
2023/10/19 07:08:28;;;;;;;;;;;;;;;9.18;71.19;99017.59;4956670;29;19969;-66
2023/10/19 07:10:56;;;;;;;;;;;;;;;9.71;71.33;99006.34;4939060;29;19926;-67
2023/10/19 07:13:39;;;;;;;;;;;;;;;10.25;69.67;99013.13;4956055;29;19936;-67
2023/10/19 07:16:05;;;;;;;;;;;;;;;10.47;69.76;99020.50;4955340;28;20051;-69
2023/10/19 07:18:36;;;;;;;;;;;;;;;10.31;69.80;99018.19;4955547;28;19965;-66
2023/10/19 07:21:09;;;;;;;;;;;;;;;10.32;69.07;99021.66;4939086;29;19926;-69
2023/10/19 07:23:37;;;;;;;;;;;;;;;10.27;69.23;99021.75;4971723;28;19961;-69
2023/10/19 07:26:03;;;;;;;;;;;;;;;10.15;68.93;99024.59;4971754;28;19926;-70
2023/10/19 07:28:33;;;;;;;;;;;;;;;9.95;68.53;99028.41;4939995;29;19926;-68
2023/10/19 07:31:01;;;;;;;;;;;;;;;9.77;67.55;99034.81;4974988;28;19929;-69
2023/10/19 07:33:27;;;;;;;;;;;;;;;9.60;67.88;99035.94;4974558;28;20503;-68
2023/10/19 07:35:59;;;;;;;;;;;;;;;9.41;68.10;99045.81;4957844;29;20316;-68
2023/10/19 07:38:26;;;;;;;;;;;;;;;9.28;68.58;99039.06;4974091;28;19931;-69
2023/10/19 07:41:00;;;;;;;;;;;;;;;9.21;68.47;99037.47;4958654;29;19922;-70
2023/10/19 07:43:37;;;;;;;;;;;;;;;9.33;68.96;99032.94;4966369;29;19931;-69
2023/10/19 07:46:15;;;;;;;;;;;;;;;9.57;68.37;99036.03;4950471;29;19926;-70
2023/10/19 07:48:47;;;;;;;;;;;;;;;9.74;67.69;99034.88;4964240;29;19926;-69
2023/10/19 07:51:16;;;;;;;;;;;;;;;9.88;67.89;99032.88;4963189;29;19922;-72
2023/10/19 07:53:42;;;;;;;;;;;;;;;10.02;68.61;99040.41;4987989;28;19917;-72
2023/10/19 07:56:09;;;;;;;;;;;;;;;10.23;68.28;99033.97;4965403;28;19922;-70
2023/10/19 07:58:34;;;;;;;;;;;;;;;10.75;68.30;99027.72;4967776;28;19929;-71
2023/10/19 08:01:01;;;;;;;;;;;;;;;11.47;67.80;99024.31;4967601;28;19923;-71
2023/10/19 08:03:26;;;;;;;;;;;;;;;11.45;66.58;99030.44;4968664;28;19922;-69
2023/10/19 08:05:54;;;;;;;;;;;;;;;11.35;66.49;99028.09;4966196;28;19920;-70
2023/10/19 08:08:20;;;;;;;;;;;;;;;11.60;66.56;99029.19;4968074;28;19923;-70
2023/10/19 08:10:47;;;;;;;;;;;;;;;11.98;66.13;99029.09;4965948;28;19930;-70
2023/10/19 08:13:16;;;;;;;;;;;;;;;12.06;65.79;99026.31;4977915;28;20002;-69
2023/10/19 08:15:45;;;;;;;;;;;;;;;12.22;65.93;99029.34;4983439;28;19931;-70
2023/10/19 08:18:14;;;;;;;;;;;;;;;12.39;65.35;99036.69;4983517;28;19922;-71
2023/10/19 08:21:03;;;;;;;;;;;;;;;12.34;65.44;99031.59;4984056;28;19923;-70
2023/10/19 08:23:31;;;;;;;;;;;;;;;12.43;64.55;99027.88;4961934;28;20089;-70
2023/10/19 08:25:59;;;;;;;;;;;;;;;12.34;64.47;99034.22;4984624;28;20291;-68
2023/10/19 08:28:25;;;;;;;;;;;;;;;12.30;64.47;99034.34;4982999;28;20584;-73
2023/10/19 08:31:00;;;;;;;;;;;;;;;12.24;64.50;99030.16;4970073;28;19922;-72
2023/10/19 08:33:38;;;;;;;;;;;;;;;12.36;64.17;99034.16;4960116;28;19933;-72
2023/10/19 08:36:19;;;;;;;;;;;;;;;12.48;63.91;99032.94;4948939;28;19926;-72
2023/10/19 08:38:57;;;;;;;;;;;;;;;12.49;63.53;99038.16;4951319;28;19922;-72
2023/10/19 08:41:43;;;;;;;;;;;;;;;12.38;63.37;99036.75;4962101;28;19926;-74
2023/10/19 08:44:14;;;;;;;;;;;;;;;12.16;63.05;99029.50;4961558;28;19922;-73
2023/10/19 08:46:47;;;;;;;;;;;;;;;11.95;62.88;99033.50;4972166;28;19974;-73
2023/10/19 08:49:16;;;;;;;;;;;;;;;11.45;62.58;99043.44;4963068;28;19929;-70
2023/10/19 08:51:46;;;;;;;;;;;;;;;11.06;63.23;99040.91;4961105;28;19930;-68
2023/10/19 08:54:18;;;;;;;;;;;;;;;10.76;62.14;99038.09;4961555;28;19930;-70
2023/10/19 08:56:47;;;;;;;;;;;;;;;10.66;63.91;99047.00;4960589;28;19929;-72
2023/10/19 08:59:16;;;;;;;;;;;;;;;10.61;63.51;99048.84;4960576;28;20337;-72
2023/10/19 09:01:45;;;;;;;;;;;;;;;10.47;63.35;99055.19;4978574;28;19926;-70
2023/10/19 09:04:30;;;;;;;;;;;;;;;10.28;63.44;99051.19;4961048;28;19929;-69
2023/10/19 09:06:56;;;;;;;;;;;;;;;10.01;63.10;99053.44;4960989;28;19977;-73
2023/10/19 09:09:29;;;;;;;;;;;;;;;9.65;63.44;99056.66;4976315;28;20073;-70
2023/10/19 09:11:59;;;;;;;;;;;;;;;9.31;64.34;99065.88;4959908;28;19990;-71
2023/10/19 09:15:00;;;;;;;;;;;;;;;9.16;64.66;99068.66;4964464;28;20416;-74
2023/10/19 09:17:43;;;;;;;;;;;;;;;9.12;65.15;99069.63;4968345;28;20020;-71
2023/10/19 09:20:27;;;;;;;;;;;;;;;9.17;65.33;99067.78;4966467;28;20408;-72
2023/10/19 09:22:57;;;;;;;;;;;;;;;9.21;65.36;99066.03;4947916;29;19923;-74
2023/10/19 09:25:39;;;;;;;;;;;;;;;9.28;65.49;99071.09;4927336;29;19949;-71
2023/10/19 09:28:23;;;;;;;;;;;;;;;9.33;65.20;99076.22;4944041;29;19927;-71
2023/10/19 09:30:49;;;;;;;;;;;;;;;9.34;65.82;99080.53;4947917;29;19954;-73
2023/10/19 09:33:21;;;;;;;;;;;;;;;9.38;65.83;99077.00;4944941;29;19951;-69
2023/10/19 09:35:56;;;;;;;;;;;;;;;9.40;65.88;99074.38;4943344;29;19923;-70
2023/10/19 09:38:25;;;;;;;;;;;;;;;9.44;65.85;99078.63;4958352;28;19933;-69
2023/10/19 09:40:57;;;;;;;;;;;;;;;9.44;66.31;99076.91;4946348;29;19974;-69
2023/10/19 09:43:29;;;;;;;;;;;;;;;9.42;66.12;99077.81;4949150;29;20369;-69
2023/10/19 09:46:01;;;;;;;;;;;;;;;9.35;66.07;99071.84;4946529;29;19903;-70
2023/10/19 09:48:28;;;;;;;;;;;;;;;9.38;66.68;99082.19;4944633;29;19970;-71
2023/10/19 09:50:58;;;;;;;;;;;;;;;9.48;66.83;99073.41;4945523;29;19926;-69
2023/10/19 09:53:28;;;;;;;;;;;;;;;9.58;66.41;99071.50;4943301;29;19926;-71
2023/10/19 09:56:00;;;;;;;;;;;;;;;9.78;66.64;99068.56;4963895;28;19933;-71
2023/10/19 09:58:31;;;;;;;;;;;;;;;9.79;66.15;99072.03;4921928;29;19914;-70
2023/10/19 10:00:57;;;;;;;;;;;;;;;9.75;66.21;99063.41;4958791;28;19929;-69
2023/10/19 10:06:28;;;;;;;;;;;;;;;9.87;66.38;99069.28;4999295;28;19953;-69
2023/10/19 10:08:57;;;;;;;;;;;;;;;9.91;66.33;99066.59;4960733;28;19922;-70
2023/10/19 10:11:24;;;;;;;;;;;;;;;9.92;66.36;99068.31;5004894;28;19922;-71
2023/10/19 10:14:24;;;;;;;;;;;;;;;10.09;66.53;99059.34;4987549;28;19982;-70
2023/10/19 10:17:01;;;;;;;;;;;;;;;10.20;66.92;99067.81;5001980;28;19925;-71
2023/10/19 10:19:26;;;;;;;;;;;;;;;10.41;66.50;99068.31;4985679;28;19932;-69
2023/10/19 10:22:11;;;;;;;;;;;;;;;10.43;65.86;99069.16;4979705;28;19922;-69
2023/10/19 10:24:44;;;;;;;;;;;;;;;10.32;66.37;99066.72;4986938;28;19949;-72
2023/10/19 10:27:19;;;;;;;;;;;;;;;10.16;65.48;99070.47;4981844;28;19929;-71
2023/10/19 10:30:06;;;;;;;;;;;;;;;10.20;66.04;99070.41;4969091;28;19985;-69
2023/10/19 10:33:13;;;;;;;;;;;;;;;10.42;66.61;99067.44;4989263;28;19926;-70
2023/10/19 10:35:39;;;;;;;;;;;;;;;10.46;65.85;99069.09;4946346;29;20383;-70
2023/10/19 10:38:09;;;;;;;;;;;;;;;10.24;65.53;99073.81;4945016;29;19982;-70
2023/10/19 10:40:48;;;;;;;;;;;;;;;10.24;65.82;99072.06;4944875;28;19933;-72
2023/10/19 10:43:16;;;;;;;;;;;;;;;10.28;65.90;99075.47;4987541;28;19960;-71
2023/10/19 10:45:50;;;;;;;;;;;;;;;10.34;66.08;99079.69;4984355;28;19964;-69
2023/10/19 10:48:17;;;;;;;;;;;;;;;10.31;66.00;99069.34;4978075;28;20400;-67
2023/10/19 10:50:43;;;;;;;;;;;;;;;10.35;66.07;99069.28;4964635;28;19922;-68
2023/10/19 10:53:19;;;;;;;;;;;;;;;10.36;65.13;99073.59;4973581;28;20029;-67
2023/10/19 10:55:47;;;;;;;;;;;;;;;10.38;65.61;99070.94;4978195;28;19930;-68
2023/10/19 10:58:19;;;;;;;;;;;;;;;10.46;65.63;99074.28;4967080;28;20331;-73
2023/10/19 11:00:54;;;;;;;;;;;;;;;10.34;65.22;99074.47;4968803;28;19922;-70
2023/10/19 11:03:30;;;;;;;;;;;;;;;10.19;64.98;99068.69;4965276;28;19922;-71
2023/10/19 11:06:02;;;;;;;;;;;;;;;10.14;65.06;99074.88;4989886;28;19926;-73
2023/10/19 11:08:28;;;;;;;;;;;;;;;10.19;65.64;99071.31;4981931;28;20585;-70
2023/10/19 11:10:55;;;;;;;;;;;;;;;10.13;64.36;99081.81;4987295;28;19929;-70
2023/10/19 11:13:35;;;;;;;;;;;;;;;10.04;65.19;99079.41;4978445;28;20025;-68
2023/10/19 11:16:07;;;;;;;;;;;;;;;10.02;65.75;99082.00;4961971;28;20373;-73
2023/10/19 11:18:40;;;;;;;;;;;;;;;10.04;65.54;99082.84;4989288;28;19922;-68
2023/10/19 11:21:14;;;;;;;;;;;;;;;9.94;65.37;99083.88;4984335;28;19969;-68
2023/10/19 11:23:52;;;;;;;;;;;;;;;9.75;65.08;99091.16;4985006;28;19928;-69
2023/10/19 11:26:20;;;;;;;;;;;;;;;9.49;65.05;99089.81;4996880;28;19926;-67
2023/10/19 11:28:51;;;;;;;;;;;;;;;9.40;65.35;99087.34;4954622;28;19922;-67
2023/10/19 11:31:27;;;;;;;;;;;;;;;9.33;65.31;99084.88;4966975;28;19922;-63
2023/10/19 11:33:55;;;;;;;;;;;;;;;9.42;65.94;99095.97;4974573;28;19922;-65
2023/10/19 11:36:22;;;;;;;;;;;;;;;9.40;65.35;99085.63;4960795;28;19922;-65
2023/10/19 11:38:51;;;;;;;;;;;;;;;9.51;66.01;99082.88;4986347;28;19922;-65
2023/10/19 11:41:17;;;;;;;;;;;;;;;9.45;65.66;99085.56;4998605;28;20004;-66
2023/10/19 11:43:52;;;;;;;;;;;;;;;9.36;65.41;99083.97;4965799;28;19929;-69
2023/10/19 11:46:25;;;;;;;;;;;;;;;9.44;65.87;99076.03;4977488;28;19985;-68
2023/10/19 11:48:51;;;;;;;;;;;;;;;9.63;66.35;99081.81;4978107;28;19922;-68
2023/10/19 11:51:16;;;;;;;;;;;;;;;9.80;66.17;99068.53;4982684;28;19926;-70
2023/10/19 11:53:42;;;;;;;;;;;;;;;9.91;65.70;99073.56;4976749;28;19953;-67
2023/10/19 11:56:10;;;;;;;;;;;;;;;10.02;65.78;99073.38;4984578;28;19926;-68
2023/10/19 11:58:39;;;;;;;;;;;;;;;10.08;66.00;99066.31;4999410;28;19922;-68
2023/10/19 12:01:11;;;;;;;;;;;;;;;10.15;65.82;99069.63;4984180;28;19929;-69
2023/10/19 12:03:40;;;;;;;;;;;;;;;10.26;66.10;99072.03;4975000;28;19922;-68
2023/10/19 12:06:06;;;;;;;;;;;;;;;10.32;65.40;99074.53;4981448;28;19930;-68
2023/10/19 12:08:33;;;;;;;;;;;;;;;10.21;64.72;99074.72;4982837;28;19922;-67
2023/10/19 12:11:14;;;;;;;;;;;;;;;10.17;65.39;99065.28;4984077;28;19921;-67
2023/10/19 12:13:43;;;;;;;;;;;;;;;10.05;63.95;99074.16;4967088;28;19926;-67
2023/10/19 12:16:13;;;;;;;;;;;;;;;10.05;65.19;99074.16;4968872;28;19945;-68
2023/10/19 12:18:39;;;;;;;;;;;;;;;10.07;64.70;99071.50;4985885;28;19929;-68
2023/10/19 12:21:07;;;;;;;;;;;;;;;9.96;65.16;99074.31;4968461;28;20574;-70
2023/10/19 12:23:33;;;;;;;;;;;;;;;10.01;65.52;99076.84;4981403;28;19926;-70
2023/10/19 12:26:04;;;;;;;;;;;;;;;10.00;64.77;99078.56;4985757;28;20023;-68
2023/10/19 12:28:38;;;;;;;;;;;;;;;10.01;64.84;99082.88;4999129;28;19926;-66
2023/10/19 12:31:10;;;;;;;;;;;;;;;9.98;65.47;99076.91;4978683;28;19929;-66
2023/10/19 12:33:38;;;;;;;;;;;;;;;10.00;65.38;99086.38;4982889;28;20396;-68
2023/10/19 12:38:55;;;;;;;;;;;;;;;10.09;65.56;99080.13;4965115;28;19926;-67
2023/10/19 12:41:21;;;;;;;;;;;;;;;10.13;65.37;99087.00;4966112;28;20524;-67
2023/10/19 12:46:49;;;;;;;;;;;;;;;10.16;65.03;99076.56;4926498;29;19937;-67
2023/10/19 12:49:18;;;;;;;;;;;;;;;10.04;65.13;99085.44;4957675;28;19921;-67
2023/10/19 12:51:45;;;;;;;;;;;;;;;9.89;65.00;99076.16;4966406;28;19969;-69
2023/10/19 12:54:13;;;;;;;;;;;;;;;9.84;65.40;99079.72;4987694;28;19929;-68
2023/10/19 12:56:41;;;;;;;;;;;;;;;9.95;65.48;99089.06;4968434;28;19978;-69
2023/10/19 12:59:07;;;;;;;;;;;;;;;9.79;64.91;99092.81;4978834;28;19922;-68
2023/10/19 13:01:40;;;;;;;;;;;;;;;9.72;64.83;99091.19;4982479;28;19957;-67
2023/10/19 13:04:18;;;;;;;;;;;;;;;9.67;65.40;99086.09;4963301;28;19926;-68
2023/10/19 13:06:47;;;;;;;;;;;;;;;9.59;65.09;99099.19;4994676;28;19933;-68
2023/10/19 13:09:15;;;;;;;;;;;;;;;9.47;65.39;99091.59;4980277;28;19922;-68
2023/10/19 13:11:45;;;;;;;;;;;;;;;9.40;65.44;99090.81;4965185;28;20005;-68
2023/10/19 13:14:12;;;;;;;;;;;;;;;9.39;65.60;99098.63;4982761;28;19941;-68
2023/10/19 13:16:58;;;;;;;;;;;;;;;9.26;65.23;99096.22;4974328;28;19929;-68
2023/10/19 13:19:33;;;;;;;;;;;;;;;9.35;66.18;99092.63;4983555;28;20568;-71
2023/10/19 13:22:05;;;;;;;;;;;;;;;9.38;65.72;99097.78;4988368;28;19922;-69
2023/10/19 13:24:40;;;;;;;;;;;;;;;9.37;66.15;99092.63;4964265;28;19929;-68
2023/10/19 13:27:21;;;;;;;;;;;;;;;9.30;65.99;99103.09;4980941;28;20367;-66
2023/10/19 13:29:57;;;;;;;;;;;;;;;9.26;65.65;99098.81;4988349;28;19922;-69
2023/10/19 13:32:59;;;;;;;;;;;;;;;9.14;65.76;99099.00;4984025;28;19926;-69
2023/10/19 13:35:30;;;;;;;;;;;;;;;9.00;66.39;99102.63;4969026;28;19945;-66
2023/10/19 13:38:04;;;;;;;;;;;;;;;9.10;66.62;99102.53;4978376;28;19965;-67
2023/10/19 13:40:30;;;;;;;;;;;;;;;9.03;66.03;99110.38;4997044;28;19922;-71
2023/10/19 13:43:28;;;;;;;;;;;;;;;9.10;66.87;99107.72;4986460;28;20380;-69
2023/10/19 13:46:25;;;;;;;;;;;;;;;9.13;66.20;99113.72;4962422;28;19926;-71
2023/10/19 13:48:51;;;;;;;;;;;;;;;8.91;66.74;99110.56;4955379;28;19921;-70
2023/10/19 13:51:20;;;;;;;;;;;;;;;8.94;67.23;99112.25;4981074;28;19926;-71
2023/10/19 13:53:47;;;;;;;;;;;;;;;8.81;66.05;99108.94;4962082;28;19930;-66
2023/10/19 13:56:40;;;;;;;;;;;;;;;8.70;66.62;99109.97;5004029;28;19929;-70
2023/10/19 13:59:11;;;;;;;;;;;;;;;8.78;67.59;99115.03;4986947;28;19921;-69